Main page
METAR-TAF:

METAR-TAF

Airports :

Fort-de-France, Martinique

Martinique Aimé Césaire International Airport

latitude: 14-36N, longitude: 061-00W, elevation: 5 m

Current weather observation

The report was made 18 minutes ago, at 02:30 UTC
Wind 3 kt from variable directions
Temperature 25°C
Humidity 89%
Pressure 1014 hPa
Visibility 10 km or more
Few clouds at a height of 2000 ft

METAR: TFFF 300230Z AUTO VRB03KT 9999 FEW020 25/23 Q1014 NOSIG

Time: 22:48 (02:48 UTC)

Forecast

The report was made 29 minutes ago, at 02:19 UTC
Forecast valid from 30 at 02 UTC to 30 at 24 UTC
Wind 3 kt from variable directions
Visibility 10 km or more
Scattered clouds at a height of 2600 ft
Broken clouds at a height of 28000 ft
Becoming
from 30 at 10 UTC to 30 at 11 UTC
Wind 8 kt from the East
Temporary
from 30 at 11 UTC to 30 at 24 UTC
Visibility: 3000 m
Broken clouds at a height of 2000 ft, Towering cumulus.
rain showers

TAF: TFFF 300219Z 3002/3024 VRB03KT 9999 SCT026 BKN280 BECMG 3010/3011 09008KT TEMPO 3011/3024 3000 SHRA BKN020TCU

Weather observations and forecasts of more than 4000 airports (METAR and TAF reports).

The available stations are represented by yellow and red dots on the map.

Hover mouse over dot to see the name of the station.

Then click to see weather observations and forecasts.

To change the map : click on the green buttons with a black cross to zoom in, on the green button with a dash to zoom out, or on the green arrows for adjacent maps.


METAR-TAF: